createdAt,value
2023-04-20T00:02:07.249Z,101222.31
2023-04-20T00:04:39.497Z,101223.16
2023-04-20T00:07:12.732Z,101219.69
2023-04-20T00:09:52.727Z,101208.31
2023-04-20T00:15:10.553Z,101199.56
2023-04-20T00:17:46.921Z,101194.31
2023-04-20T00:20:23.160Z,101202.97
2023-04-20T00:23:03.870Z,101194.25
2023-04-20T00:25:41.105Z,101190.75
2023-04-20T00:28:11.445Z,101192.47
2023-04-20T00:30:43.351Z,101186.38
2023-04-20T00:33:23.531Z,101182.88
2023-04-20T00:36:00.326Z,101184.59
2023-04-20T00:41:30.090Z,101168.81
2023-04-20T00:44:12.698Z,101166.16
2023-04-20T00:47:01.326Z,101166.16
2023-04-20T00:49:40.146Z,101158.31
2023-04-20T00:52:07.563Z,101157.38
2023-04-20T00:54:37.319Z,101152.19
2023-04-20T00:57:16.718Z,101153.88
2023-04-20T00:59:48.755Z,101143.47
2023-04-20T01:02:16.120Z,101143.38
2023-04-20T01:04:43.444Z,101137.28
2023-04-20T01:07:12.821Z,101129.41
2023-04-20T01:09:40.114Z,101125.88
2023-04-20T01:12:14.138Z,101125.81
2023-04-20T01:14:41.455Z,101124.94
2023-04-20T01:17:17.668Z,101118.81
2023-04-20T01:19:46.848Z,101110.94
2023-04-20T01:22:23.304Z,101108.34
2023-04-20T01:25:02.986Z,101099.63
2023-04-20T01:27:32.397Z,101103.13
2023-04-20T01:30:02.248Z,101094.38
2023-04-20T01:32:41.774Z,101094.28
2023-04-20T01:35:16.640Z,101089.94
2023-04-20T01:37:52.700Z,101088.19
2023-04-20T01:40:20.443Z,101084.69
2023-04-20T01:43:02.669Z,101075.94
2023-04-20T01:45:32.265Z,101077.63
2023-04-20T01:48:03.688Z,101073.34
2023-04-20T01:50:32.741Z,101071.59
2023-04-20T01:53:00.128Z,101063.66
2023-04-20T01:55:27.558Z,101060.22
2023-04-20T01:57:54.709Z,101053.16
2023-04-20T02:00:26.093Z,101059.28
2023-04-20T02:02:55.883Z,101052.16
2023-04-20T02:05:26.431Z,101043.47
2023-04-20T02:07:53.999Z,101044.28
2023-04-20T02:10:22.571Z,101041.66
2023-04-20T02:12:53.648Z,101041.63
2023-04-20T02:15:24.019Z,101034.66
2023-04-20T02:18:00.658Z,101025.91
2023-04-20T02:20:30.934Z,101026.78
2023-04-20T02:23:01.120Z,101026.78
2023-04-20T02:25:30.635Z,101023.28
2023-04-20T02:28:00.060Z,101018.03
2023-04-20T02:30:27.381Z,101013.66
2023-04-20T02:32:57.488Z,101019.75
2023-04-20T02:35:27.941Z,101015.38
2023-04-20T02:37:55.215Z,101011.00
2023-04-20T02:40:25.340Z,101009.22
2023-04-20T02:42:56.129Z,100997.06
2023-04-20T02:45:26.209Z,101001.44
2023-04-20T02:48:02.534Z,101002.25
2023-04-20T02:50:31.890Z,100997.00
2023-04-20T02:53:25.385Z,100994.34
2023-04-20T02:56:05.753Z,100998.69
2023-04-20T02:58:42.022Z,100986.50
2023-04-20T03:01:35.418Z,100983.88
2023-04-20T03:04:10.438Z,100980.34
2023-04-20T03:06:44.514Z,100970.78
2023-04-20T03:09:16.537Z,100976.03
2023-04-20T03:12:16.114Z,100971.69
2023-04-20T03:15:18.807Z,100963.78
2023-04-20T03:18:04.903Z,100965.50
2023-04-20T03:20:32.826Z,100960.22
2023-04-20T03:23:02.561Z,100952.38
2023-04-20T03:25:30.117Z,100958.47
2023-04-20T03:28:03.528Z,100964.56
2023-04-20T03:30:31.277Z,100957.56
2023-04-20T03:33:12.611Z,100959.31
2023-04-20T03:35:40.113Z,100955.81
2023-04-20T03:38:07.352Z,100958.44
2023-04-20T03:40:34.826Z,100959.31
2023-04-20T03:43:05.250Z,100949.69
2023-04-20T03:45:32.995Z,100951.50
2023-04-20T03:48:08.629Z,100947.91
2023-04-20T03:50:35.999Z,100941.75
2023-04-20T03:53:06.714Z,100946.16
2023-04-20T03:55:34.003Z,100944.34
2023-04-20T03:58:11.272Z,100940.81
2023-04-20T04:00:53.799Z,100939.94
2023-04-20T04:03:25.079Z,100944.22
2023-04-20T04:05:52.495Z,100935.50
2023-04-20T04:08:20.908Z,100934.63
2023-04-20T04:10:51.603Z,100931.13
2023-04-20T04:13:23.374Z,100925.00
2023-04-20T04:15:53.903Z,100931.13
2023-04-20T04:18:25.388Z,100933.66
2023-04-20T04:20:55.328Z,100924.91
2023-04-20T04:23:25.339Z,100930.13
2023-04-20T04:26:08.589Z,100930.09
2023-04-20T04:28:37.816Z,100927.41
2023-04-20T04:31:17.708Z,100936.16
2023-04-20T04:33:47.681Z,100935.28
2023-04-20T04:36:27.383Z,100934.41
2023-04-20T04:38:57.562Z,100932.72
2023-04-20T04:41:26.624Z,100941.28
2023-04-20T04:44:06.754Z,100940.31
2023-04-20T04:46:53.166Z,100944.59
2023-04-20T04:49:25.318Z,100937.50
2023-04-20T04:51:57.644Z,100937.44
2023-04-20T04:54:32.236Z,100940.19
2023-04-20T04:56:59.427Z,100944.66
2023-04-20T04:59:43.270Z,100937.69
2023-04-20T05:05:20.017Z,100935.75
2023-04-20T05:08:02.557Z,100930.44
2023-04-20T05:14:19.715Z,100933.06
2023-04-20T05:17:05.212Z,100933.97
2023-04-20T05:19:45.445Z,100929.69
2023-04-20T05:22:50.676Z,100936.50
2023-04-20T05:25:43.171Z,100930.47
2023-04-20T05:29:02.926Z,100930.53
2023-04-20T05:32:03.456Z,100925.22
2023-04-20T05:35:01.978Z,100932.91
2023-04-20T05:37:58.253Z,100922.56
2023-04-20T05:40:37.962Z,100925.31
2023-04-20T05:43:29.826Z,100931.44
2023-04-20T05:46:25.246Z,100927.97
2023-04-20T05:49:09.908Z,100936.69
2023-04-20T05:55:02.940Z,100933.31
2023-04-20T05:57:55.204Z,100930.72
2023-04-20T06:00:32.268Z,100930.81
2023-04-20T06:03:07.582Z,100927.34
2023-04-20T06:06:00.411Z,100935.28
2023-04-20T06:09:05.474Z,100926.63
2023-04-20T06:12:04.692Z,100924.91
2023-04-20T06:14:57.127Z,100918.94
2023-04-20T06:18:29.836Z,100920.66
2023-04-20T06:21:03.173Z,100923.19
2023-04-20T06:24:04.111Z,100924.91
2023-04-20T06:30:36.925Z,100912.72
2023-04-20T06:33:32.324Z,100912.75
2023-04-20T06:36:33.880Z,100915.47
2023-04-20T06:39:06.060Z,100910.31
2023-04-20T06:41:50.290Z,100912.16
2023-04-20T06:44:26.246Z,100915.69
2023-04-20T06:47:08.005Z,100906.22
2023-04-20T06:49:47.492Z,100913.16
2023-04-20T06:52:24.174Z,100894.09
2023-04-20T06:54:55.813Z,100896.72
2023-04-20T06:57:27.891Z,100903.78
2023-04-20T07:00:01.940Z,100892.53
2023-04-20T07:02:45.905Z,100896.91
2023-04-20T07:05:14.062Z,100891.81
2023-04-20T07:07:44.461Z,100887.47
2023-04-20T07:10:16.201Z,100880.53
2023-04-20T07:13:03.916Z,100886.66
2023-04-20T07:15:40.195Z,100882.41
2023-04-20T07:18:07.694Z,100887.66
2023-04-20T07:20:41.456Z,100886.84
2023-04-20T07:23:10.709Z,100883.38
2023-04-20T07:25:40.677Z,100880.72
2023-04-20T07:28:15.803Z,100874.66
2023-04-20T07:30:44.088Z,100879.09
2023-04-20T07:36:04.155Z,100874.84
2023-04-20T07:41:38.107Z,100872.13
2023-04-20T07:44:29.324Z,100866.84
2023-04-20T07:46:59.572Z,100869.38
2023-04-20T07:49:41.149Z,100854.78
2023-04-20T07:52:21.256Z,100855.59
2023-04-20T07:54:56.480Z,100858.28
2023-04-20T07:57:30.400Z,100852.16
2023-04-20T08:00:05.934Z,100853.91
2023-04-20T08:02:45.463Z,100854.81
2023-04-20T08:05:21.633Z,100850.44
2023-04-20T08:07:54.726Z,100846.06
2023-04-20T08:10:25.194Z,100850.47
2023-04-20T08:13:09.162Z,100845.25
2023-04-20T08:15:39.632Z,100847.84
2023-04-20T08:18:16.117Z,100851.38
2023-04-20T08:20:52.211Z,100844.34
2023-04-20T08:26:21.105Z,100848.75
2023-04-20T08:28:48.375Z,100853.97
2023-04-20T08:31:36.542Z,100853.91
2023-04-20T08:34:32.217Z,100844.22
2023-04-20T08:39:56.926Z,100847.88
2023-04-20T08:42:29.243Z,100832.75
2023-04-20T08:45:06.402Z,100837.78
2023-04-20T08:47:42.782Z,100843.25
2023-04-20T08:50:38.667Z,100836.78
2023-04-20T08:53:23.043Z,100836.75
2023-04-20T08:56:00.531Z,100834.16
2023-04-20T08:58:44.227Z,100831.19
2023-04-20T09:01:22.681Z,100828.22
2023-04-20T09:04:30.812Z,100826.00
2023-04-20T09:07:22.941Z,100826.88
2023-04-20T09:09:56.588Z,100825.53
2023-04-20T09:12:29.938Z,100822.63
2023-04-20T09:15:25.418Z,100818.78
2023-04-20T09:17:54.970Z,100813.53
2023-04-20T09:20:55.951Z,100815.13
2023-04-20T09:23:34.774Z,100808.44
2023-04-20T09:26:21.454Z,100809.84
2023-04-20T09:29:03.449Z,100806.34
2023-04-20T09:31:31.058Z,100808.03
2023-04-20T09:34:21.727Z,100805.41
2023-04-20T09:36:58.795Z,100816.34
2023-04-20T09:39:30.775Z,100820.91
2023-04-20T09:42:08.427Z,100808.28
2023-04-20T09:44:46.249Z,100812.88
2023-04-20T09:47:36.598Z,100805.25
2023-04-20T09:52:59.897Z,100810.94
2023-04-20T09:55:28.896Z,100802.97
2023-04-20T09:58:05.357Z,100797.53
2023-04-20T10:00:35.411Z,100802.47
2023-04-20T10:03:14.778Z,100794.91
2023-04-20T10:05:46.499Z,100797.34
2023-04-20T10:08:18.671Z,100789.06
2023-04-20T10:10:59.585Z,100786.84
2023-04-20T10:13:37.175Z,100789.41
2023-04-20T10:16:24.030Z,100801.19
2023-04-20T10:19:09.051Z,100791.34
2023-04-20T10:22:02.720Z,100786.44
2023-04-20T10:24:45.666Z,100790.25
2023-04-20T10:27:40.227Z,100787.75
2023-04-20T10:30:19.954Z,100786.44
2023-04-20T10:32:52.245Z,100776.41
2023-04-20T10:35:24.581Z,100776.56
2023-04-20T10:38:10.831Z,100774.69
2023-04-20T10:41:16.995Z,100769.31
2023-04-20T10:43:51.312Z,100767.38
2023-04-20T10:46:29.984Z,100779.78
2023-04-20T10:49:09.329Z,100761.69
2023-04-20T10:51:44.531Z,100771.13
2023-04-20T10:54:20.915Z,100761.97
2023-04-20T10:56:57.443Z,100760.34
2023-04-20T10:59:30.396Z,100759.28
2023-04-20T11:08:20.557Z,100771.06
2023-04-20T11:11:00.591Z,100757.50
2023-04-20T11:13:38.269Z,100760.06
2023-04-20T11:16:18.583Z,100748.31
2023-04-20T11:19:07.678Z,100757.16
2023-04-20T11:21:38.629Z,100756.03
2023-04-20T11:24:22.319Z,100747.31
2023-04-20T11:26:57.606Z,100754.84
2023-04-20T11:29:38.978Z,100735.63
2023-04-20T11:32:36.992Z,100745.88
2023-04-20T11:38:00.660Z,100727.00
2023-04-20T11:40:39.281Z,100712.47
2023-04-20T11:43:19.457Z,100715.72
2023-04-20T11:45:58.841Z,100727.22
2023-04-20T11:48:43.378Z,100704.69
2023-04-20T11:51:20.154Z,100714.03
2023-04-20T11:53:54.643Z,100704.50
2023-04-20T11:56:33.628Z,100700.50
2023-04-20T11:59:15.337Z,100712.59
2023-04-20T12:01:42.708Z,100708.88
2023-04-20T12:04:16.746Z,100702.59
2023-04-20T12:06:53.535Z,100688.44
2023-04-20T12:09:23.638Z,100678.09
2023-04-20T12:12:00.161Z,100673.19
2023-04-20T12:14:30.589Z,100682.19
2023-04-20T12:17:19.835Z,100673.41
2023-04-20T12:19:57.601Z,100650.38
2023-04-20T12:22:39.460Z,100654.56
2023-04-20T12:25:25.843Z,100654.28
2023-04-20T12:27:53.207Z,100657.09
2023-04-20T12:30:20.544Z,100669.00
2023-04-20T12:32:53.758Z,100663.66
2023-04-20T12:35:29.960Z,100675.03
2023-04-20T12:38:02.889Z,100663.66
2023-04-20T12:40:30.081Z,100663.53
2023-04-20T12:42:59.534Z,100669.53
2023-04-20T12:45:28.433Z,100665.34
2023-04-20T12:48:00.384Z,100683.94
2023-04-20T12:50:27.984Z,100681.28
2023-04-20T12:52:56.286Z,100664.50
2023-04-20T12:55:23.483Z,100668.47
2023-04-20T12:57:51.277Z,100675.03
2023-04-20T13:00:19.172Z,100674.09
2023-04-20T13:02:46.379Z,100669.28
2023-04-20T13:05:16.730Z,100681.91
2023-04-20T13:07:43.941Z,100683.63
2023-04-20T13:10:21.643Z,100666.94
2023-04-20T13:13:06.893Z,100675.47
2023-04-20T13:15:39.123Z,100682.56
2023-04-20T13:18:07.703Z,100668.88
2023-04-20T13:20:34.983Z,100667.66
2023-04-20T13:23:04.448Z,100660.75
2023-04-20T13:25:34.846Z,100669.28
2023-04-20T13:28:06.210Z,100669.38
2023-04-20T13:30:36.119Z,100666.66
2023-04-20T13:33:03.832Z,100650.31
2023-04-20T13:35:31.911Z,100651.63
2023-04-20T13:37:59.284Z,100647.28
2023-04-20T13:40:26.421Z,100650.50
2023-04-20T13:42:53.992Z,100661.75
2023-04-20T13:45:23.484Z,100639.44
2023-04-20T13:47:50.923Z,100637.66
2023-04-20T13:50:18.044Z,100637.50
2023-04-20T13:52:48.534Z,100625.31
2023-04-20T13:55:15.908Z,100629.31
2023-04-20T13:57:44.500Z,100629.59
2023-04-20T14:00:12.378Z,100612.78
2023-04-20T14:02:40.074Z,100609.72
2023-04-20T14:05:07.701Z,100606.78
2023-04-20T14:07:34.855Z,100608.47
2023-04-20T14:10:02.119Z,100607.84
2023-04-20T14:12:29.431Z,100605.63
2023-04-20T14:15:02.919Z,100604.22
2023-04-20T14:17:30.917Z,100595.50
2023-04-20T14:19:58.033Z,100600.81
2023-04-20T14:22:25.282Z,100606.88
2023-04-20T14:24:52.428Z,100605.53
2023-04-20T14:27:19.603Z,100613.47
2023-04-20T14:29:50.703Z,100607.56
2023-04-20T14:32:18.979Z,100625.22
2023-04-20T14:34:47.127Z,100628.47
2023-04-20T14:37:14.840Z,100622.69
2023-04-20T14:39:42.217Z,100606.19
2023-04-20T14:42:11.823Z,100612.16
2023-04-20T14:44:39.097Z,100618.84
2023-04-20T14:47:06.199Z,100607.63
2023-04-20T14:49:33.620Z,100596.31
2023-04-20T14:52:10.096Z,100591.69
2023-04-20T14:54:37.362Z,100584.31
2023-04-20T14:59:45.549Z,100592.13
2023-04-20T15:02:19.673Z,100564.25
2023-04-20T15:04:53.181Z,100573.00
2023-04-20T15:07:48.115Z,100588.91
2023-04-20T15:10:18.958Z,100553.94
2023-04-20T15:12:54.854Z,100574.84
2023-04-20T15:15:37.571Z,100559.53
2023-04-20T15:18:15.329Z,100572.09
2023-04-20T15:20:44.220Z,100575.84
2023-04-20T15:23:16.550Z,100557.88
2023-04-20T15:25:43.981Z,100559.66
2023-04-20T15:28:17.031Z,100566.19
2023-04-20T15:30:47.300Z,100557.91
2023-04-20T15:33:15.538Z,100584.84
2023-04-20T15:35:44.916Z,100581.09
2023-04-20T15:38:14.870Z,100587.22
2023-04-20T15:40:46.527Z,100611.44
2023-04-20T15:43:13.937Z,100603.91
2023-04-20T15:45:50.173Z,100614.53
2023-04-20T15:48:18.517Z,100610.34
2023-04-20T15:50:50.171Z,100625.53
2023-04-20T15:53:18.135Z,100629.41
2023-04-20T15:55:47.317Z,100626.44
2023-04-20T15:58:24.155Z,100627.25
2023-04-20T16:00:51.534Z,100635.81
2023-04-20T16:03:18.917Z,100636.03
2023-04-20T16:05:46.124Z,100634.22
2023-04-20T16:08:14.503Z,100652.72
2023-04-20T16:10:41.738Z,100645.22
2023-04-20T16:13:08.892Z,100638.53
2023-04-20T16:15:36.561Z,100644.06
2023-04-20T16:18:05.637Z,100638.69
2023-04-20T16:20:33.031Z,100645.66
2023-04-20T16:23:00.183Z,100652.31
2023-04-20T16:25:28.691Z,100656.75
2023-04-20T16:27:56.037Z,100659.69
2023-04-20T16:30:23.521Z,100657.00
2023-04-20T16:32:53.606Z,100665.97
2023-04-20T16:35:21.009Z,100666.59
2023-04-20T16:37:48.259Z,100673.06
2023-04-20T16:40:15.706Z,100669.75
2023-04-20T16:42:43.028Z,100676.16
2023-04-20T16:45:10.565Z,100668.84
2023-04-20T16:47:38.004Z,100664.56
2023-04-20T16:50:07.724Z,100674.28
2023-04-20T16:52:35.877Z,100682.22
2023-04-20T16:55:06.118Z,100687.53
2023-04-20T16:57:34.214Z,100687.31
2023-04-20T17:00:01.548Z,100692.47
2023-04-20T17:02:33.309Z,100705.91
2023-04-20T17:05:01.103Z,100713.03
2023-04-20T17:07:29.941Z,100712.03
2023-04-20T17:09:59.993Z,100713.84
2023-04-20T17:12:28.119Z,100689.44
2023-04-20T17:14:58.955Z,100684.16
2023-04-20T17:17:26.594Z,100712.34
2023-04-20T17:19:54.388Z,100700.94
2023-04-20T17:22:21.748Z,100702.66
2023-04-20T17:24:49.406Z,100707.06
2023-04-20T17:27:21.847Z,100731.59
2023-04-20T17:29:50.291Z,100720.16
2023-04-20T17:32:17.858Z,100719.16
2023-04-20T17:34:51.579Z,100715.66
2023-04-20T17:37:18.940Z,100722.59
2023-04-20T17:39:46.598Z,100708.78
2023-04-20T17:42:13.886Z,100720.81
2023-04-20T17:44:41.273Z,100711.06
2023-04-20T17:47:10.036Z,100707.59
2023-04-20T17:49:37.368Z,100714.72
2023-04-20T17:52:04.733Z,100726.09
2023-04-20T17:54:34.346Z,100721.78
2023-04-20T17:57:02.045Z,100733.97
2023-04-20T17:59:30.926Z,100733.88
2023-04-20T18:01:58.978Z,100732.97
2023-04-20T18:04:26.630Z,100746.13
2023-04-20T18:06:54.005Z,100737.34
2023-04-20T18:09:21.388Z,100748.81
2023-04-20T18:11:48.501Z,100746.22
2023-04-20T18:14:15.744Z,100749.75
2023-04-20T18:16:42.900Z,100759.47
2023-04-20T18:19:12.485Z,100763.81
2023-04-20T18:21:39.775Z,100758.63
2023-04-20T18:24:07.613Z,100764.72
2023-04-20T18:26:35.159Z,100760.41
2023-04-20T18:29:02.282Z,100764.69
2023-04-20T18:31:30.849Z,100759.53
2023-04-20T18:33:58.029Z,100769.13
2023-04-20T18:36:26.110Z,100772.63
2023-04-20T18:38:54.216Z,100768.25
2023-04-20T18:41:23.581Z,100767.41
2023-04-20T18:43:53.911Z,100760.41
2023-04-20T18:46:24.193Z,100756.03
2023-04-20T18:48:51.491Z,100760.41
2023-04-20T18:51:18.750Z,100762.16
2023-04-20T18:53:46.118Z,100765.69
2023-04-20T18:56:13.439Z,100765.69
2023-04-20T18:58:41.779Z,100757.81
2023-04-20T19:01:12.383Z,100756.06
2023-04-20T19:03:39.930Z,100750.75
2023-04-20T19:06:07.066Z,100750.78
2023-04-20T19:08:34.411Z,100753.38
2023-04-20T19:11:01.937Z,100762.09
2023-04-20T19:13:29.005Z,100760.31
2023-04-20T19:15:59.988Z,100778.66
2023-04-20T19:18:27.504Z,100775.16
2023-04-20T19:20:55.021Z,100785.28
2023-04-20T19:23:22.386Z,100788.03
2023-04-20T19:25:49.619Z,100783.72
2023-04-20T19:28:17.027Z,100786.34
2023-04-20T19:30:44.283Z,100778.59
2023-04-20T19:33:11.812Z,100772.59
2023-04-20T19:35:39.199Z,100780.47
2023-04-20T19:38:08.177Z,100783.13
2023-04-20T19:40:35.442Z,100798.00
2023-04-20T19:43:02.589Z,100800.63
2023-04-20T19:45:30.026Z,100793.66
2023-04-20T19:47:57.357Z,100804.09
2023-04-20T19:50:24.624Z,100798.88
2023-04-20T19:52:52.488Z,100794.53
2023-04-20T19:55:19.906Z,100801.47
2023-04-20T19:57:47.333Z,100801.53
2023-04-20T20:00:18.295Z,100791.88
2023-04-20T20:02:46.707Z,100798.88
2023-04-20T20:05:14.133Z,100797.06
2023-04-20T20:07:48.490Z,100806.72
2023-04-20T20:10:15.941Z,100803.25
2023-04-20T20:12:44.786Z,100796.25
2023-04-20T20:15:12.219Z,100788.41
2023-04-20T20:17:39.619Z,100794.50
2023-04-20T20:20:07.843Z,100798.88
2023-04-20T20:22:35.003Z,100802.34
2023-04-20T20:25:02.272Z,100811.13
2023-04-20T20:27:29.680Z,100810.25
2023-04-20T20:29:56.862Z,100805.88
2023-04-20T20:32:25.095Z,100814.63
2023-04-20T20:34:53.219Z,100815.47
2023-04-20T20:37:21.432Z,100810.19
2023-04-20T20:39:48.712Z,100798.00
2023-04-20T20:42:16.150Z,100805.88
2023-04-20T20:44:44.434Z,100809.38
2023-04-20T20:47:11.617Z,100800.63
2023-04-20T20:49:38.748Z,100806.75
2023-04-20T20:52:07.329Z,100816.25
2023-04-20T20:54:34.463Z,100806.72
2023-04-20T20:57:01.879Z,100819.84
2023-04-20T20:59:28.928Z,100817.25
2023-04-20T21:01:56.296Z,100822.50
2023-04-20T21:04:23.690Z,100816.38
2023-04-20T21:06:50.949Z,100818.13
2023-04-20T21:09:18.504Z,100824.25
2023-04-20T21:11:45.694Z,100821.63
2023-04-20T21:14:12.778Z,100821.63
2023-04-20T21:16:42.431Z,100825.97
2023-04-20T21:19:10.808Z,100827.75
2023-04-20T21:21:37.802Z,100821.59
2023-04-20T21:24:05.067Z,100825.13
2023-04-20T21:26:37.605Z,100819.03
2023-04-20T21:29:05.640Z,100820.75
2023-04-20T21:31:33.520Z,100826.81
2023-04-20T21:34:01.182Z,100821.63
2023-04-20T21:36:28.832Z,100831.22
2023-04-20T21:38:55.947Z,100825.13
2023-04-20T21:41:23.248Z,100828.59
2023-04-20T21:43:54.905Z,100830.34
2023-04-20T21:46:22.537Z,100833.00
2023-04-20T21:48:51.638Z,100822.50
2023-04-20T21:51:19.352Z,100826.00
2023-04-20T21:53:46.888Z,100829.50
2023-04-20T21:56:15.189Z,100835.63
2023-04-20T21:58:42.589Z,100835.63
2023-04-20T22:01:10.231Z,100832.13
2023-04-20T22:03:38.215Z,100830.38
2023-04-20T22:06:06.994Z,100841.72
2023-04-20T22:08:34.892Z,100838.22
2023-04-20T22:11:02.347Z,100837.34
2023-04-20T22:13:30.350Z,100845.22
2023-04-20T22:15:57.486Z,100839.09
2023-04-20T22:18:24.882Z,100844.34
2023-04-20T22:20:52.425Z,100836.47
2023-04-20T22:23:19.891Z,100846.09
2023-04-20T22:25:48.298Z,100837.34
2023-04-20T22:28:16.229Z,100840.84
2023-04-20T22:30:43.594Z,100842.59
2023-04-20T22:33:10.815Z,100851.38
2023-04-20T22:35:37.954Z,100840.88
2023-04-20T22:38:05.166Z,100835.63
2023-04-20T22:40:32.433Z,100844.38
2023-04-20T22:43:00.263Z,100846.97
2023-04-20T22:45:27.645Z,100840.84
2023-04-20T22:47:55.094Z,100847.84
2023-04-20T22:50:22.587Z,100838.25
2023-04-20T22:52:53.727Z,100843.47
2023-04-20T22:55:21.648Z,100827.75
2023-04-20T22:57:49.039Z,100831.25
2023-04-20T23:00:16.762Z,100830.38
2023-04-20T23:02:44.008Z,100817.25
2023-04-20T23:05:11.236Z,100817.25
2023-04-20T23:07:39.566Z,100812.88
2023-04-20T23:10:11.014Z,100811.16
2023-04-20T23:12:38.596Z,100810.25
2023-04-20T23:15:06.214Z,100808.50
2023-04-20T23:17:34.242Z,100797.16
2023-04-20T23:20:01.266Z,100798.03
2023-04-20T23:22:28.420Z,100800.63
2023-04-20T23:24:57.808Z,100798.03
2023-04-20T23:27:25.016Z,100795.38
2023-04-20T23:29:52.143Z,100799.75
2023-04-20T23:32:19.257Z,100799.75
2023-04-20T23:34:46.864Z,100802.38
2023-04-20T23:37:16.904Z,100798.00
2023-04-20T23:39:44.050Z,100791.91
2023-04-20T23:42:11.119Z,100798.88
2023-04-20T23:44:38.292Z,100795.38
2023-04-20T23:47:05.665Z,100793.63
2023-04-20T23:49:32.784Z,100798.91
2023-04-20T23:51:59.884Z,100791.88
2023-04-20T23:54:27.189Z,100785.78
2023-04-20T23:56:55.587Z,100802.41
2023-04-20T23:59:23.055Z,100797.16
